Time;durP1;ratioP1;P1;durP2;ratioP2;P2;SDS_P1;SDS_P2;PMS_P1;PMS_P2;Temp;Humidity;BMP_temperature;BMP_pressure;BME280_temperature;BME280_humidity;BME280_pressure;Samples;Min_cycle;Max_cycle;Signal;HPM_P1;HPM_P2
2021/10/16 00:00:11;;;;;;;10.57;8.23;;;6.00;99.90;;;;;;5074241;28;20184;-63
2021/10/16 00:02:36;;;;;;;9.13;8.43;;;6.00;99.90;;;;;;5065137;28;20684;-63
2021/10/16 00:05:03;;;;;;;8.73;8.00;;;6.00;99.90;;;;;;5054401;28;20177;-63
2021/10/16 00:07:29;;;;;;;10.87;9.77;;;6.00;99.90;;;;;;5061534;28;20209;-63
2021/10/16 00:09:55;;;;;;;14.87;9.00;;;6.00;99.90;;;;;;5074114;28;20202;-63
2021/10/16 00:12:21;;;;;;;12.83;8.90;;;6.00;99.90;;;;;;5068462;28;20269;-63
2021/10/16 00:14:47;;;;;;;9.17;8.37;;;6.00;99.90;;;;;;5054322;28;20181;-63
2021/10/16 00:17:12;;;;;;;9.17;8.23;;;6.10;99.90;;;;;;5057778;28;20624;-61
2021/10/16 00:19:38;;;;;;;15.27;8.93;;;6.00;99.90;;;;;;5074069;28;20181;-63
2021/10/16 00:22:04;;;;;;;9.30;7.97;;;6.00;99.90;;;;;;5071649;28;20556;-63
2021/10/16 00:24:31;;;;;;;9.80;8.90;;;6.10;99.90;;;;;;5054191;28;20602;-63
2021/10/16 00:26:57;;;;;;;9.67;8.70;;;6.10;99.90;;;;;;5054536;28;20187;-63
2021/10/16 00:29:22;;;;;;;11.23;8.60;;;6.10;99.90;;;;;;5073853;28;20182;-63
2021/10/16 00:31:48;;;;;;;9.53;8.73;;;6.10;99.90;;;;;;5057364;28;20644;-63
2021/10/16 00:34:14;;;;;;;9.43;8.63;;;6.10;99.90;;;;;;5053959;28;20761;-63
2021/10/16 00:36:39;;;;;;;8.70;8.00;;;6.00;99.90;;;;;;5068394;28;20643;-63
2021/10/16 00:39:05;;;;;;;17.37;8.87;;;5.90;99.90;;;;;;5073448;28;20189;-64
2021/10/16 00:41:31;;;;;;;8.57;7.87;;;5.80;99.90;;;;;;5060705;28;20205;-63
2021/10/16 00:44:16;;;;;;;8.90;8.20;;;5.70;99.90;;;;;;5070433;28;20228;-63
2021/10/16 00:46:42;;;;;;;15.80;8.40;;;5.70;99.90;;;;;;5059812;28;20175;-63
2021/10/16 00:49:08;;;;;;;9.60;8.63;;;5.70;99.90;;;;;;5053246;28;20544;-63
2021/10/16 00:51:35;;;;;;;8.40;7.87;;;5.70;99.90;;;;;;5065629;28;20644;-63
2021/10/16 00:54:01;;;;;;;10.50;8.50;;;5.70;99.90;;;;;;5073510;28;20190;-63
2021/10/16 00:56:27;;;;;;;10.23;7.93;;;5.70;99.90;;;;;;5066420;28;20236;-63
2021/10/16 00:58:54;;;;;;;11.37;7.90;;;5.70;99.90;;;;;;5053535;28;20175;-61
2021/10/16 01:01:20;;;;;;;9.47;8.60;;;5.70;99.90;;;;;;5061963;28;20222;-63
2021/10/16 01:03:46;;;;;;;9.83;7.93;;;5.70;99.90;;;;;;5073404;28;20577;-63
2021/10/16 01:06:11;;;;;;;12.33;8.50;;;5.60;99.90;;;;;;5066065;28;20171;-63
2021/10/16 01:08:38;;;;;;;9.63;8.73;;;5.60;99.90;;;;;;5053482;28;20183;-63
2021/10/16 01:11:05;;;;;;;10.10;9.20;;;5.50;99.90;;;;;;5054054;28;20262;-63
2021/10/16 01:13:31;;;;;;;13.00;9.10;;;5.40;99.90;;;;;;5053336;28;20200;-63
2021/10/16 01:15:57;;;;;;;10.20;9.17;;;5.40;99.90;;;;;;5059770;28;20635;-63
2021/10/16 01:18:24;;;;;;;12.70;8.53;;;5.30;99.90;;;;;;5073292;28;20683;-63
2021/10/16 01:21:08;;;;;;;9.63;8.83;;;5.30;99.90;;;;;;5054133;28;20286;-64
2021/10/16 01:23:35;;;;;;;11.40;8.70;;;5.30;99.90;;;;;;5053082;28;20237;-63
2021/10/16 01:26:04;;;;;;;8.70;8.00;;;5.20;99.90;;;;;;5072058;28;20269;-63
2021/10/16 01:28:30;;;;;;;9.40;8.40;;;5.30;99.90;;;;;;5073156;28;20176;-63
2021/10/16 01:30:56;;;;;;;10.93;8.93;;;5.30;99.90;;;;;;5054394;28;20179;-63
2021/10/16 01:33:31;;;;;;;12.63;8.60;;;5.20;99.90;;;;;;5052858;28;20191;-63
2021/10/16 01:36:05;;;;;;;9.57;8.67;;;5.20;99.90;;;;;;5070238;28;20189;-63
2021/10/16 01:38:32;;;;;;;11.17;8.47;;;5.20;99.90;;;;;;5072749;28;20190;-63
2021/10/16 01:40:59;;;;;;;9.17;8.57;;;5.20;99.90;;;;;;5054809;28;20194;-64
2021/10/16 01:43:25;;;;;;;9.20;8.50;;;5.20;99.90;;;;;;5052140;28;20614;-63
2021/10/16 01:45:52;;;;;;;12.40;8.60;;;5.10;99.90;;;;;;5068248;28;20186;-63
2021/10/16 01:48:25;;;;;;;9.70;8.67;;;5.00;99.90;;;;;;5072609;28;20170;-63
2021/10/16 01:50:51;;;;;;;9.10;8.30;;;5.00;99.90;;;;;;5057049;28;20202;-63
2021/10/16 01:53:17;;;;;;;9.00;8.40;;;4.90;99.90;;;;;;5063139;28;20618;-63
2021/10/16 01:55:43;;;;;;;8.93;8.13;;;4.90;99.90;;;;;;5072444;28;20171;-63
2021/10/16 01:58:12;;;;;;;9.03;8.23;;;4.90;99.90;;;;;;5063042;28;20252;-63
2021/10/16 02:00:39;;;;;;;9.63;8.73;;;5.00;99.90;;;;;;5052118;28;20202;-64
2021/10/16 02:03:09;;;;;;;9.07;8.40;;;5.00;99.90;;;;;;5060041;28;20210;-63
2021/10/16 02:05:36;;;;;;;9.70;8.90;;;5.00;99.90;;;;;;5072400;28;20539;-63
2021/10/16 02:08:02;;;;;;;10.87;9.83;;;5.00;99.90;;;;;;5066021;28;20701;-65
2021/10/16 02:10:28;;;;;;;8.80;8.00;;;5.00;99.90;;;;;;5053226;28;20655;-66
2021/10/16 02:12:54;;;;;;;12.47;8.33;;;5.00;99.90;;;;;;5058127;28;20202;-67
2021/10/16 02:15:20;;;;;;;10.50;8.43;;;5.00;99.90;;;;;;5073172;28;20200;-66
2021/10/16 02:17:46;;;;;;;12.03;8.50;;;5.00;99.90;;;;;;5067774;28;20182;-65
2021/10/16 02:20:12;;;;;;;10.00;8.97;;;5.00;99.90;;;;;;5052994;28;20179;-65
2021/10/16 02:22:38;;;;;;;9.53;8.20;;;5.00;99.90;;;;;;5072372;28;20267;-65
2021/10/16 02:25:04;;;;;;;9.50;8.60;;;4.80;99.90;;;;;;5072821;28;20216;-66
2021/10/16 02:27:29;;;;;;;8.40;7.73;;;4.70;99.90;;;;;;5054467;28;20652;-66
2021/10/16 02:29:55;;;;;;;8.77;8.00;;;4.60;99.90;;;;;;5052855;28;20177;-66
2021/10/16 02:32:21;;;;;;;8.83;8.03;;;4.60;99.90;;;;;;5068722;28;20536;-68
2021/10/16 02:34:47;;;;;;;9.00;8.40;;;4.50;99.90;;;;;;5071603;28;20187;-66
2021/10/16 02:37:13;;;;;;;8.70;8.00;;;4.40;99.90;;;;;;5057694;28;20187;-65
2021/10/16 02:39:38;;;;;;;12.50;8.13;;;4.30;99.90;;;;;;5052685;28;20237;-66
2021/10/16 02:42:04;;;;;;;9.07;8.37;;;4.20;99.90;;;;;;5065509;28;20288;-65
2021/10/16 02:44:30;;;;;;;8.30;7.70;;;4.10;99.90;;;;;;5072906;28;20264;-66
2021/10/16 02:46:57;;;;;;;8.80;8.23;;;4.00;99.90;;;;;;5061362;28;20521;-68
2021/10/16 02:49:23;;;;;;;8.37;7.87;;;4.00;99.90;;;;;;5059150;28;20170;-65
2021/10/16 02:51:48;;;;;;;8.57;7.97;;;4.10;99.90;;;;;;5072627;28;20180;-67
2021/10/16 02:54:14;;;;;;;8.67;7.77;;;4.00;99.90;;;;;;5066588;28;20252;-65
2021/10/16 02:56:40;;;;;;;10.00;8.87;;;4.00;99.90;;;;;;5052584;28;20532;-70
2021/10/16 02:59:06;;;;;;;8.87;7.87;;;4.00;99.90;;;;;;5055313;28;20247;-67
2021/10/16 03:01:31;;;;;;;8.73;8.07;;;4.00;99.90;;;;;;5068891;28;20234;-65
2021/10/16 03:03:57;;;;;;;11.33;8.97;;;4.10;99.90;;;;;;5053875;28;20277;-67
2021/10/16 03:06:22;;;;;;;10.37;8.80;;;4.00;99.90;;;;;;5072327;28;20176;-66
2021/10/16 03:08:48;;;;;;;8.80;8.03;;;4.00;99.90;;;;;;5072047;28;20174;-64
2021/10/16 03:11:14;;;;;;;11.60;9.03;;;4.00;99.90;;;;;;5051922;28;20182;-68
2021/10/16 03:13:40;;;;;;;8.90;8.20;;;4.10;99.90;;;;;;5052182;28;20202;-68
2021/10/16 03:16:06;;;;;;;11.00;8.00;;;4.00;99.90;;;;;;5070749;28;20296;-65
2021/10/16 03:18:31;;;;;;;9.00;8.30;;;4.10;99.90;;;;;;5063746;28;20198;-67
2021/10/16 03:20:57;;;;;;;9.17;8.30;;;4.10;99.90;;;;;;5051950;28;20330;-65
2021/10/16 03:23:23;;;;;;;8.93;8.33;;;4.00;99.90;;;;;;5066395;28;20284;-66
2021/10/16 03:25:48;;;;;;;9.53;8.50;;;4.00;99.90;;;;;;5071008;28;20174;-64
2021/10/16 03:28:14;;;;;;;9.23;8.43;;;4.00;99.90;;;;;;5059327;28;20171;-69
2021/10/16 03:30:40;;;;;;;9.43;8.57;;;4.10;99.90;;;;;;5051908;28;20175;-67
2021/10/16 03:33:06;;;;;;;9.77;8.80;;;4.10;99.90;;;;;;5059043;28;20190;-68
2021/10/16 03:35:32;;;;;;;13.10;9.20;;;4.00;99.90;;;;;;5057612;28;20186;-69
2021/10/16 03:37:57;;;;;;;10.67;9.57;;;4.00;99.90;;;;;;5052237;28;20196;-68
2021/10/16 03:40:23;;;;;;;11.77;10.67;;;4.00;99.90;;;;;;5058167;28;20170;-67
2021/10/16 03:42:49;;;;;;;12.03;10.30;;;4.00;99.90;;;;;;5052255;28;20246;-66
2021/10/16 03:45:14;;;;;;;10.80;9.90;;;4.00;99.90;;;;;;5058316;28;20194;-68
2021/10/16 03:47:40;;;;;;;10.20;9.07;;;4.00;99.90;;;;;;5072528;28;20533;-65
2021/10/16 03:50:07;;;;;;;10.50;9.33;;;4.00;99.90;;;;;;5067223;28;20175;-65
2021/10/16 03:52:32;;;;;;;10.97;9.60;;;4.00;99.90;;;;;;5049940;28;20628;-63
2021/10/16 03:54:58;;;;;;;10.40;9.33;;;3.90;99.90;;;;;;5053481;28;20175;-62
2021/10/16 03:57:23;;;;;;;9.50;8.80;;;3.90;99.90;;;;;;5070898;28;20186;-63
2021/10/16 03:59:49;;;;;;;10.43;9.33;;;3.80;99.90;;;;;;5069662;28;20171;-63
2021/10/16 04:02:17;;;;;;;10.83;8.70;;;3.80;99.90;;;;;;5050528;28;20214;-63
2021/10/16 04:04:42;;;;;;;9.27;8.53;;;3.80;99.90;;;;;;5051387;28;20186;-63
2021/10/16 04:07:08;;;;;;;9.50;8.67;;;3.80;99.90;;;;;;5072824;28;20320;-63
2021/10/16 04:09:33;;;;;;;10.07;8.87;;;3.70;99.90;;;;;;5074164;28;20173;-63
2021/10/16 04:11:59;;;;;;;9.60;9.00;;;3.70;99.90;;;;;;5056666;28;20198;-63
2021/10/16 04:14:25;;;;;;;9.70;8.67;;;3.70;99.90;;;;;;5054616;28;20205;-63
2021/10/16 04:16:50;;;;;;;10.40;9.60;;;3.70;99.90;;;;;;5069544;28;20178;-63
2021/10/16 04:19:16;;;;;;;11.37;10.13;;;3.60;99.90;;;;;;5061819;28;20190;-63
2021/10/16 04:21:41;;;;;;;12.00;10.80;;;3.60;99.90;;;;;;5054319;28;20206;-63
2021/10/16 04:24:07;;;;;;;11.47;10.27;;;3.50;99.90;;;;;;5063742;28;20212;-63
2021/10/16 04:26:33;;;;;;;11.67;10.70;;;3.50;99.90;;;;;;5074165;28;20632;-63
2021/10/16 04:28:58;;;;;;;11.30;10.30;;;3.50;99.90;;;;;;5065595;28;20548;-63
2021/10/16 04:31:24;;;;;;;11.47;10.47;;;3.40;99.90;;;;;;5053916;28;20175;-63
2021/10/16 04:33:49;;;;;;;11.33;10.23;;;3.40;99.90;;;;;;5059950;28;20675;-63
2021/10/16 04:36:15;;;;;;;10.97;10.07;;;3.40;99.90;;;;;;5073998;28;20603;-63
2021/10/16 04:38:45;;;;;;;10.93;10.03;;;3.50;99.90;;;;;;5069693;28;20179;-63
2021/10/16 04:41:11;;;;;;;10.77;9.67;;;3.40;99.90;;;;;;5053394;28;20207;-63
2021/10/16 04:43:41;;;;;;;10.50;9.50;;;3.40;99.90;;;;;;5056687;28;20202;-63
2021/10/16 04:46:09;;;;;;;12.40;9.90;;;3.30;99.90;;;;;;5073451;28;20542;-63
2021/10/16 04:48:37;;;;;;;12.20;10.20;;;3.30;99.90;;;;;;5053910;28;20171;-63
2021/10/16 04:51:05;;;;;;;11.23;10.53;;;3.30;99.90;;;;;;5053279;28;20553;-63
2021/10/16 04:53:30;;;;;;;10.30;9.67;;;3.20;99.90;;;;;;5072669;28;20228;-63
2021/10/16 04:55:56;;;;;;;10.90;10.20;;;3.20;99.90;;;;;;5073597;28;20188;-63
2021/10/16 04:58:21;;;;;;;11.67;10.97;;;3.20;99.90;;;;;;5056491;28;20647;-63
2021/10/16 05:00:47;;;;;;;11.80;10.77;;;3.20;99.90;;;;;;5053340;28;20225;-64
2021/10/16 05:03:13;;;;;;;12.20;11.53;;;3.20;99.90;;;;;;5068453;28;20630;-64
2021/10/16 05:05:39;;;;;;;12.67;11.83;;;3.20;99.90;;;;;;5073579;28;20206;-64
2021/10/16 05:08:06;;;;;;;12.93;12.03;;;3.10;99.90;;;;;;5059599;28;20236;-63
2021/10/16 05:10:33;;;;;;;14.47;13.10;;;3.20;99.90;;;;;;5054474;28;20171;-63
2021/10/16 05:12:58;;;;;;;14.00;12.87;;;3.10;99.90;;;;;;5071977;28;20190;-64
2021/10/16 05:15:24;;;;;;;13.67;12.50;;;3.10;99.90;;;;;;5064677;28;20198;-63
2021/10/16 05:17:49;;;;;;;12.37;11.57;;;3.10;99.90;;;;;;5054837;28;20186;-63
2021/10/16 05:20:15;;;;;;;12.23;11.17;;;3.10;99.90;;;;;;5072941;28;20182;-63
2021/10/16 05:22:41;;;;;;;11.63;10.63;;;3.00;99.90;;;;;;5071623;28;20214;-63
2021/10/16 05:25:07;;;;;;;12.83;11.53;;;3.00;99.90;;;;;;5052744;28;20182;-63
2021/10/16 05:27:32;;;;;;;11.03;10.17;;;3.00;99.90;;;;;;5053209;28;20175;-63
2021/10/16 05:29:58;;;;;;;14.40;10.20;;;3.10;99.90;;;;;;5071606;28;20697;-63
2021/10/16 05:32:23;;;;;;;11.90;10.90;;;3.10;99.90;;;;;;5072776;28;20175;-63
2021/10/16 05:34:49;;;;;;;12.80;11.90;;;3.10;99.90;;;;;;5055028;28;20195;-63
2021/10/16 05:37:14;;;;;;;14.47;13.47;;;3.00;99.90;;;;;;5052848;28;20253;-63
2021/10/16 05:39:40;;;;;;;15.43;14.63;;;3.00;99.90;;;;;;5067528;28;20635;-63
2021/10/16 05:42:07;;;;;;;15.60;14.77;;;2.90;99.90;;;;;;5063473;28;20210;-63
2021/10/16 05:44:33;;;;;;;15.33;14.43;;;3.00;99.90;;;;;;5053610;28;20199;-63
2021/10/16 05:46:59;;;;;;;15.10;14.17;;;2.90;99.90;;;;;;5052762;28;20266;-63
2021/10/16 05:49:24;;;;;;;15.27;14.13;;;3.00;99.90;;;;;;5065815;28;20178;-63
2021/10/16 05:51:50;;;;;;;15.63;14.50;;;2.90;99.90;;;;;;5072444;28;20174;-63
2021/10/16 05:54:16;;;;;;;15.53;14.53;;;3.00;99.90;;;;;;5059915;28;20209;-63
2021/10/16 05:56:41;;;;;;;15.20;14.10;;;2.90;99.90;;;;;;5051569;28;20201;-63
2021/10/16 05:59:07;;;;;;;15.43;14.43;;;2.90;99.90;;;;;;5061722;28;20272;-63
2021/10/16 06:01:32;;;;;;;11.57;10.83;;;2.90;99.90;;;;;;5070092;28;20205;-63
2021/10/16 06:03:58;;;;;;;12.97;11.47;;;3.00;99.90;;;;;;5071381;28;20671;-63
2021/10/16 06:06:24;;;;;;;11.93;11.13;;;3.10;99.90;;;;;;5072069;28;20174;-63
2021/10/16 06:08:49;;;;;;;10.37;9.67;;;3.20;99.90;;;;;;5065626;28;20662;-63
2021/10/16 06:11:15;;;;;;;11.63;10.43;;;3.30;99.90;;;;;;5051639;28;20177;-63
2021/10/16 06:13:41;;;;;;;10.57;9.77;;;3.40;99.90;;;;;;5056116;28;20252;-63
2021/10/16 06:16:06;;;;;;;10.57;9.57;;;3.40;99.90;;;;;;5071829;28;20635;-63
2021/10/16 06:18:32;;;;;;;9.87;9.13;;;3.50;99.90;;;;;;5069155;28;20186;-63
2021/10/16 06:20:58;;;;;;;9.57;8.90;;;3.60;99.90;;;;;;5051494;28;20232;-63
2021/10/16 06:23:23;;;;;;;9.70;9.10;;;3.60;99.90;;;;;;5052022;28;20204;-63
2021/10/16 06:25:49;;;;;;;10.77;9.97;;;3.70;99.90;;;;;;5071854;28;20259;-63
2021/10/16 06:28:15;;;;;;;9.23;8.47;;;3.70;99.90;;;;;;5071519;28;20177;-64
2021/10/16 06:30:41;;;;;;;10.10;9.40;;;3.70;99.90;;;;;;5052412;28;20183;-64
2021/10/16 06:33:07;;;;;;;10.50;9.47;;;3.90;99.90;;;;;;5051531;28;20217;-63
2021/10/16 06:35:37;;;;;;;9.93;9.13;;;3.90;99.90;;;;;;5050149;28;20179;-63
2021/10/16 06:38:02;;;;;;;10.20;9.37;;;4.00;99.90;;;;;;5065484;28;20186;-63
2021/10/16 06:40:28;;;;;;;11.60;10.43;;;4.10;99.90;;;;;;5071561;28;20182;-63
2021/10/16 06:42:54;;;;;;;9.87;9.27;;;4.20;99.90;;;;;;5059335;28;20246;-65
2021/10/16 06:45:19;;;;;;;10.73;9.63;;;4.30;99.90;;;;;;5056300;28;20201;-66
2021/10/16 06:47:45;;;;;;;10.13;9.33;;;4.40;99.90;;;;;;5071815;28;20205;-63
2021/10/16 06:50:10;;;;;;;10.77;9.70;;;4.40;99.90;;;;;;5067838;28;20182;-63
2021/10/16 06:52:36;;;;;;;9.63;8.90;;;4.40;99.90;;;;;;5051543;28;20277;-63
2021/10/16 06:55:02;;;;;;;11.17;9.73;;;4.50;99.90;;;;;;5062435;28;20182;-63
2021/10/16 06:57:28;;;;;;;10.60;9.40;;;4.50;99.90;;;;;;5071345;28;20267;-64
2021/10/16 06:59:53;;;;;;;9.90;9.10;;;4.60;99.90;;;;;;5061955;28;20317;-63
2021/10/16 07:02:19;;;;;;;10.17;9.37;;;4.60;99.90;;;;;;5050921;28;20248;-63
2021/10/16 07:04:45;;;;;;;10.60;9.80;;;4.70;99.90;;;;;;5058417;28;20276;-63
2021/10/16 07:07:10;;;;;;;10.97;10.07;;;4.70;99.90;;;;;;5068904;28;20264;-64
2021/10/16 07:09:36;;;;;;;10.97;10.07;;;4.80;99.90;;;;;;5060685;28;20240;-64
2021/10/16 07:12:02;;;;;;;10.63;9.80;;;4.90;99.90;;;;;;5069215;28;20217;-63
2021/10/16 07:14:28;;;;;;;16.40;11.53;;;5.00;99.90;;;;;;5058569;28;20214;-63
2021/10/16 07:16:53;;;;;;;11.97;11.03;;;5.10;99.90;;;;;;5052992;28;20194;-63
2021/10/16 07:19:19;;;;;;;11.60;10.67;;;5.20;99.90;;;;;;5070832;28;20616;-63
2021/10/16 07:21:44;;;;;;;11.33;10.30;;;5.40;99.90;;;;;;5070758;28;20201;-63
2021/10/16 07:24:10;;;;;;;11.13;10.03;;;5.60;99.90;;;;;;5050928;28;20564;-63
2021/10/16 07:26:38;;;;;;;12.23;11.03;;;5.70;99.90;;;;;;5051234;28;20225;-64
2021/10/16 07:29:04;;;;;;;11.47;10.37;;;5.80;99.90;;;;;;5069081;28;20358;-64
2021/10/16 07:31:30;;;;;;;13.17;10.83;;;5.90;99.90;;;;;;5055357;28;20186;-63
2021/10/16 07:33:56;;;;;;;14.60;11.07;;;5.90;99.90;;;;;;5051181;28;20198;-63
2021/10/16 07:36:23;;;;;;;12.47;11.27;;;5.90;99.90;;;;;;5060446;28;20273;-63
2021/10/16 07:38:48;;;;;;;12.77;11.47;;;6.10;99.90;;;;;;5053359;28;20548;-62
2021/10/16 07:41:14;;;;;;;13.60;12.33;;;6.20;99.90;;;;;;5052189;28;20219;-63
2021/10/16 07:43:40;;;;;;;15.30;12.53;;;6.30;99.90;;;;;;5065705;28;20197;-63
2021/10/16 07:46:06;;;;;;;13.63;12.23;;;6.40;99.90;;;;;;5074721;28;20548;-63
2021/10/16 07:48:31;;;;;;;13.03;11.97;;;6.40;99.90;;;;;;5065833;28;20171;-63
2021/10/16 07:50:57;;;;;;;14.57;13.23;;;6.50;99.90;;;;;;5054385;28;20261;-63
2021/10/16 07:53:22;;;;;;;14.47;12.87;;;6.50;99.90;;;;;;5069807;28;20194;-63
2021/10/16 07:55:49;;;;;;;14.83;13.23;;;6.50;99.90;;;;;;5074795;28;20162;-63
2021/10/16 07:58:15;;;;;;;13.97;12.73;;;6.50;99.90;;;;;;5072808;28;20261;-63
2021/10/16 08:00:40;;;;;;;15.23;13.73;;;6.60;99.90;;;;;;5074452;28;20265;-63
2021/10/16 08:03:06;;;;;;;14.90;13.40;;;6.70;99.90;;;;;;5070444;28;20684;-64
2021/10/16 08:05:32;;;;;;;15.83;14.13;;;6.90;99.90;;;;;;5054671;28;20217;-63
2021/10/16 08:07:58;;;;;;;18.17;13.20;;;6.90;99.90;;;;;;5055492;28;20175;-63
2021/10/16 08:10:24;;;;;;;17.13;13.63;;;7.00;99.90;;;;;;5054155;28;20591;-63
2021/10/16 08:12:49;;;;;;;18.77;14.60;;;7.20;99.90;;;;;;5054395;28;20194;-63
2021/10/16 08:15:15;;;;;;;20.93;15.57;;;7.20;99.90;;;;;;5073923;28;20193;-63
2021/10/16 08:17:41;;;;;;;20.97;14.47;;;7.30;99.90;;;;;;5074810;28;20193;-63
2021/10/16 08:20:07;;;;;;;20.07;15.80;;;7.40;99.90;;;;;;5072200;28;20555;-64
2021/10/16 08:22:34;;;;;;;22.13;16.70;;;7.40;99.90;;;;;;5061801;28;20818;-63
2021/10/16 08:24:59;;;;;;;23.27;15.80;;;7.50;99.90;;;;;;5054174;28;20220;-63
2021/10/16 08:27:25;;;;;;;25.40;17.10;;;7.60;99.90;;;;;;5064555;28;20614;-63
2021/10/16 08:29:51;;;;;;;35.80;19.20;;;7.70;99.90;;;;;;5073763;28;20174;-63
2021/10/16 08:32:17;;;;;;;31.80;18.43;;;7.80;99.90;;;;;;5071820;28;20269;-63
2021/10/16 08:34:42;;;;;;;33.87;19.60;;;7.80;99.90;;;;;;5074028;28;20177;-63
2021/10/16 08:37:08;;;;;;;32.90;19.73;;;7.90;99.90;;;;;;5072100;28;20170;-63
2021/10/16 08:39:33;;;;;;;36.10;19.77;;;7.90;99.90;;;;;;5073722;28;20674;-63
2021/10/16 08:41:59;;;;;;;40.53;20.43;;;8.00;99.90;;;;;;5068308;28;20202;-63
2021/10/16 08:44:25;;;;;;;39.17;21.57;;;8.10;99.90;;;;;;5053834;28;20556;-63
2021/10/16 08:46:54;;;;;;;49.03;23.20;;;8.30;99.90;;;;;;5057098;28;20166;-63
2021/10/16 08:49:22;;;;;;;33.50;20.30;;;8.50;99.90;;;;;;5072920;28;20620;-64
2021/10/16 08:51:47;;;;;;;40.33;21.30;;;8.60;99.90;;;;;;5053319;28;20332;-63
2021/10/16 08:54:13;;;;;;;38.53;21.37;;;8.60;99.90;;;;;;5053145;28;20191;-64
2021/10/16 08:56:39;;;;;;;33.13;19.97;;;8.80;99.90;;;;;;5071775;28;20228;-64
2021/10/16 08:59:04;;;;;;;32.30;19.53;;;8.90;99.90;;;;;;5073309;28;20201;-62
2021/10/16 09:01:30;;;;;;;34.80;20.80;;;8.90;99.90;;;;;;5067248;28;20623;-63
2021/10/16 09:03:57;;;;;;;35.90;21.73;;;9.00;99.90;;;;;;5073315;28;20201;-63
2021/10/16 09:06:30;;;;;;;31.23;19.43;;;9.10;99.90;;;;;;5057735;28;20240;-63
2021/10/16 09:09:03;;;;;;;32.17;20.03;;;9.20;99.90;;;;;;5053267;28;20644;-63
2021/10/16 09:11:44;;;;;;;29.67;19.20;;;9.30;99.90;;;;;;5067468;28;20282;-64
2021/10/16 09:14:24;;;;;;;32.07;20.83;;;9.30;99.90;;;;;;5072467;28;20202;-63
2021/10/16 09:16:56;;;;;;;35.20;19.10;;;9.50;99.90;;;;;;5054665;28;20225;-63
2021/10/16 09:19:26;;;;;;;22.23;15.73;;;9.70;99.90;;;;;;5052665;28;20181;-64
2021/10/16 09:21:58;;;;;;;28.73;15.27;;;9.80;99.90;;;;;;5071040;28;20206;-62
2021/10/16 09:24:25;;;;;;;22.57;15.27;;;9.90;99.90;;;;;;5072935;28;20201;-61
2021/10/16 09:26:57;;;;;;;23.37;16.57;;;10.10;99.90;;;;;;5055303;28;20175;-61
2021/10/16 09:29:25;;;;;;;24.73;16.13;;;10.00;99.90;;;;;;5063137;28;20605;-61
2021/10/16 09:32:15;;;;;;;23.70;16.07;;;9.90;99.90;;;;;;5071501;28;20170;-61
2021/10/16 09:34:43;;;;;;;20.40;15.53;;;10.00;99.90;;;;;;5071243;28;20186;-61
2021/10/16 09:37:14;;;;;;;21.90;17.13;;;10.00;99.90;;;;;;5071279;28;20174;-61
2021/10/16 09:39:51;;;;;;;25.53;16.57;;;10.00;99.90;;;;;;5063573;28;20540;-62
2021/10/16 09:42:44;;;;;;;23.13;16.93;;;9.90;99.90;;;;;;5053661;28;20569;-61
2021/10/16 09:45:15;;;;;;;26.80;17.03;;;10.00;99.90;;;;;;5052794;28;20202;-62
2021/10/16 09:47:57;;;;;;;27.70;16.50;;;10.20;99.90;;;;;;5072679;28;20261;-61
2021/10/16 09:50:23;;;;;;;27.40;16.70;;;10.40;99.90;;;;;;5072369;28;20174;-61
2021/10/16 09:52:51;;;;;;;24.03;16.20;;;10.50;99.90;;;;;;5072474;28;20190;-62
2021/10/16 09:55:17;;;;;;;19.33;14.63;;;10.40;99.90;;;;;;5072242;28;20550;-62
2021/10/16 09:57:44;;;;;;;24.03;15.63;;;10.50;99.90;;;;;;5072475;28;20178;-62
2021/10/16 10:00:11;;;;;;;22.53;16.27;;;10.50;99.90;;;;;;5071626;28;20542;-62
2021/10/16 10:02:37;;;;;;;26.23;17.97;;;10.60;99.90;;;;;;5072242;28;20289;-61
2021/10/16 10:05:06;;;;;;;22.00;16.00;;;10.80;99.90;;;;;;5072246;28;20178;-62
2021/10/16 10:07:34;;;;;;;26.73;15.53;;;10.90;99.90;;;;;;5071953;28;20196;-62
2021/10/16 10:10:00;;;;;;;23.10;18.00;;;10.90;99.90;;;;;;5071713;28;20573;-62
2021/10/16 10:12:26;;;;;;;28.20;17.20;;;10.90;99.90;;;;;;5071981;28;20253;-62
2021/10/16 10:14:53;;;;;;;26.17;17.67;;;11.10;99.90;;;;;;5072092;28;20173;-62
2021/10/16 10:17:28;;;;;;;27.60;16.57;;;11.20;99.90;;;;;;5071811;28;20208;-62
2021/10/16 10:20:01;;;;;;;28.10;17.70;;;11.40;99.90;;;;;;5071668;28;20518;-62
2021/10/16 10:22:34;;;;;;;24.00;17.27;;;11.50;99.90;;;;;;5071681;28;20240;-62
2021/10/16 10:25:00;;;;;;;23.27;17.20;;;11.80;99.90;;;;;;5071781;28;20170;-62
2021/10/16 10:27:26;;;;;;;23.70;15.80;;;12.10;99.90;;;;;;5071935;28;20162;-62
2021/10/16 10:29:54;;;;;;;24.17;15.10;;;12.30;99.90;;;;;;5071439;28;20184;-63
2021/10/16 10:32:28;;;;;;;21.23;16.57;;;12.50;99.90;;;;;;5071543;28;20235;-63
2021/10/16 10:35:03;;;;;;;20.80;14.43;;;12.60;99.90;;;;;;5071705;28;20241;-63
2021/10/16 10:37:41;;;;;;;22.20;16.27;;;12.40;99.90;;;;;;5071711;28;20556;-63
2021/10/16 10:40:15;;;;;;;24.40;15.67;;;12.30;99.90;;;;;;5071234;28;20177;-63
2021/10/16 10:42:52;;;;;;;18.70;15.87;;;12.40;99.90;;;;;;5071810;28;20208;-63
2021/10/16 10:45:26;;;;;;;20.60;15.50;;;12.40;99.90;;;;;;5064673;28;20181;-63
2021/10/16 10:48:04;;;;;;;21.13;15.17;;;12.90;99.90;;;;;;5057419;28;20650;-65
2021/10/16 10:50:52;;;;;;;19.47;13.47;;;13.60;99.90;;;;;;5068548;28;20176;-63
2021/10/16 10:53:25;;;;;;;15.20;12.60;;;14.30;99.90;;;;;;5071547;28;20198;-63
2021/10/16 10:55:57;;;;;;;14.77;11.30;;;15.30;99.90;;;;;;5069708;28;20189;-63
2021/10/16 10:58:43;;;;;;;13.30;11.43;;;15.90;99.90;;;;;;5070810;28;20643;-63
2021/10/16 11:01:09;;;;;;;13.23;11.37;;;16.40;99.90;;;;;;5069231;28;20186;-63
2021/10/16 11:03:35;;;;;;;14.07;10.50;;;16.70;99.90;;;;;;5071215;28;21022;-62
2021/10/16 11:06:09;;;;;;;11.00;9.70;;;17.20;99.90;;;;;;5069745;28;20260;-63
2021/10/16 11:08:38;;;;;;;15.87;9.63;;;17.80;99.90;;;;;;5069703;28;20265;-63
2021/10/16 11:11:04;;;;;;;10.97;9.87;;;18.40;99.90;;;;;;5071013;28;20207;-63
2021/10/16 11:13:39;;;;;;;14.07;10.87;;;19.20;99.90;;;;;;5069750;28;20284;-63
2021/10/16 11:16:06;;;;;;;10.80;9.30;;;19.80;99.90;;;;;;5072925;28;20706;-63
2021/10/16 11:18:33;;;;;;;11.83;10.33;;;20.30;99.90;;;;;;5073800;28;20178;-62
2021/10/16 11:21:09;;;;;;;10.77;9.10;;;20.60;99.90;;;;;;5075061;28;20165;-63
2021/10/16 11:23:37;;;;;;;11.20;8.82;;;21.10;99.90;;;;;;5073561;28;20734;-62
2021/10/16 11:26:10;;;;;;;11.15;9.15;;;21.30;99.90;;;;;;5075366;28;20170;-63
2021/10/16 11:28:37;;;;;;;13.35;10.18;;;21.80;99.90;;;;;;5068233;28;20563;-63
2021/10/16 11:31:04;;;;;;;10.38;9.07;;;22.00;99.90;;;;;;5062649;28;20166;-63
2021/10/16 11:33:32;;;;;;;12.32;8.52;;;21.70;99.90;;;;;;5074869;28;20671;-63
2021/10/16 11:36:00;;;;;;;10.18;8.35;;;21.50;99.90;;;;;;5060583;28;20202;-63
2021/10/16 11:38:32;;;;;;;10.40;9.25;;;21.60;99.90;;;;;;5054975;28;20174;-63
2021/10/16 11:40:59;;;;;;;10.30;8.27;;;21.60;99.90;;;;;;5067993;28;20663;-63
2021/10/16 11:43:44;;;;;;;10.38;9.32;;;21.10;99.90;;;;;;5067379;28;20201;-63
2021/10/16 11:46:22;;;;;;;10.27;8.52;;;21.00;99.90;;;;;;5070863;28;20182;-63
2021/10/16 11:48:48;;;;;;;10.35;9.02;;;20.60;99.90;;;;;;5074801;28;20162;-63
2021/10/16 11:51:14;;;;;;;9.38;8.00;;;20.50;99.90;;;;;;5061723;28;20193;-62
2021/10/16 11:53:44;;;;;;;11.53;9.57;;;20.70;99.90;;;;;;5054548;28;20195;-63
2021/10/16 11:56:12;;;;;;;10.10;8.57;;;21.10;99.90;;;;;;5065596;28;20182;-63
2021/10/16 11:58:39;;;;;;;9.48;8.07;;;21.50;99.90;;;;;;5074570;28;20178;-63
2021/10/16 12:01:07;;;;;;;9.45;7.65;;;21.80;99.90;;;;;;5063664;28;20194;-63
2021/10/16 12:03:41;;;;;;;8.15;7.38;;;21.90;99.90;;;;;;5054343;28;20202;-63
2021/10/16 12:06:11;;;;;;;10.00;8.48;;;21.90;99.90;;;;;;5063855;28;20210;-63
2021/10/16 12:08:53;;;;;;;9.70;8.60;;;21.50;99.90;;;;;;5074498;28;20174;-63
2021/10/16 12:11:26;;;;;;;10.33;8.47;;;20.90;99.90;;;;;;5062837;28;20218;-63
2021/10/16 12:14:05;;;;;;;10.35;8.65;;;20.90;99.90;;;;;;5054604;28;20668;-63
2021/10/16 12:16:41;;;;;;;8.23;7.43;;;20.90;99.90;;;;;;5066116;28;20174;-63
2021/10/16 12:19:14;;;;;;;10.40;9.30;;;20.60;99.90;;;;;;5073944;28;20200;-63
2021/10/16 12:21:41;;;;;;;12.47;10.67;;;20.00;99.90;;;;;;5060896;28;20210;-63
2021/10/16 12:24:14;;;;;;;12.47;9.83;;;19.20;99.90;;;;;;5053909;28;20616;-63
2021/10/16 12:26:42;;;;;;;11.23;10.13;;;18.50;99.90;;;;;;5065767;28;20185;-63
2021/10/16 12:29:31;;;;;;;13.77;10.17;;;18.00;99.90;;;;;;5073697;28;20210;-63
2021/10/16 12:31:58;;;;;;;11.43;10.33;;;17.60;99.90;;;;;;5059740;28;20178;-63
2021/10/16 12:34:31;;;;;;;12.43;9.60;;;17.50;99.90;;;;;;5063450;28;20197;-62
2021/10/16 12:36:57;;;;;;;12.43;10.73;;;17.10;99.90;;;;;;5071006;28;20249;-62
2021/10/16 12:39:31;;;;;;;12.03;10.73;;;16.90;99.90;;;;;;5054153;28;20183;-62
2021/10/16 12:42:06;;;;;;;11.50;9.43;;;16.60;99.90;;;;;;5055380;28;20213;-63
2021/10/16 12:44:37;;;;;;;13.07;10.53;;;16.50;99.90;;;;;;5073810;28;20623;-63